createdAt,value
2022-10-03T00:01:23.550Z,3.27
2022-10-03T00:03:56.060Z,2.87
2022-10-03T00:06:30.199Z,3.10
2022-10-03T00:09:19.491Z,3.00
2022-10-03T00:11:57.660Z,2.97
2022-10-03T00:14:28.740Z,2.80
2022-10-03T00:17:00.634Z,3.20
2022-10-03T00:19:32.545Z,2.47
2022-10-03T00:22:07.637Z,2.50
2022-10-03T00:24:46.094Z,2.90
2022-10-03T00:27:18.300Z,2.80
2022-10-03T00:29:56.570Z,3.23
2022-10-03T00:32:31.828Z,3.03
2022-10-03T00:35:07.021Z,2.70
2022-10-03T00:37:36.825Z,2.60
2022-10-03T00:40:32.139Z,2.60
2022-10-03T00:43:19.547Z,2.60
2022-10-03T00:45:59.761Z,3.00
2022-10-03T00:48:49.053Z,2.83
2022-10-03T00:51:25.964Z,2.50
2022-10-03T00:54:03.488Z,2.90
2022-10-03T00:56:45.225Z,2.80
2022-10-03T00:59:24.436Z,2.50
2022-10-03T01:01:52.560Z,2.70
2022-10-03T01:04:40.243Z,2.90
2022-10-03T01:07:23.058Z,3.00
2022-10-03T01:10:09.710Z,2.60
2022-10-03T01:12:54.573Z,2.60
2022-10-03T01:15:29.766Z,3.03
2022-10-03T01:18:10.278Z,2.97
2022-10-03T01:20:43.053Z,3.00
2022-10-03T01:23:43.340Z,2.90
2022-10-03T01:26:21.092Z,2.30
2022-10-03T01:29:09.859Z,3.23
2022-10-03T01:31:43.607Z,2.30
2022-10-03T01:34:14.397Z,3.43
2022-10-03T01:36:49.891Z,2.37
2022-10-03T01:39:20.716Z,2.70
2022-10-03T01:41:51.692Z,2.60
2022-10-03T01:44:25.090Z,2.63
2022-10-03T01:46:56.046Z,2.97
2022-10-03T01:49:28.207Z,2.67
2022-10-03T01:52:00.703Z,2.70
2022-10-03T01:54:34.743Z,2.30
2022-10-03T01:57:04.166Z,2.80
2022-10-03T01:59:37.384Z,2.93
2022-10-03T02:02:09.358Z,2.80
2022-10-03T02:04:42.896Z,2.70
2022-10-03T02:07:17.987Z,2.70
2022-10-03T02:09:52.010Z,2.70
2022-10-03T02:12:27.277Z,2.93
2022-10-03T02:14:59.598Z,3.40
2022-10-03T02:17:37.491Z,2.50
2022-10-03T02:20:08.227Z,2.93
2022-10-03T02:22:38.547Z,2.77
2022-10-03T02:25:24.837Z,2.87
2022-10-03T02:28:25.060Z,2.43
2022-10-03T02:31:16.739Z,3.10
2022-10-03T02:34:09.139Z,3.23
2022-10-03T02:37:09.590Z,2.90
2022-10-03T02:40:01.568Z,3.53
2022-10-03T02:43:01.286Z,2.83
2022-10-03T02:45:47.196Z,2.67
2022-10-03T02:49:02.862Z,3.07
2022-10-03T02:52:05.549Z,2.83
2022-10-03T02:54:58.217Z,3.50
2022-10-03T02:57:54.627Z,2.90
2022-10-03T03:00:22.840Z,3.10
2022-10-03T03:03:14.518Z,3.30
2022-10-03T03:06:07.630Z,3.20
2022-10-03T03:08:58.232Z,3.03
2022-10-03T03:11:59.353Z,3.23
2022-10-03T03:14:57.633Z,2.60
2022-10-03T03:17:31.229Z,2.90
2022-10-03T03:20:23.453Z,3.00
2022-10-03T03:23:03.064Z,3.70
2022-10-03T03:25:40.181Z,2.60
2022-10-03T03:28:14.988Z,3.33
2022-10-03T03:30:48.212Z,2.70
2022-10-03T03:33:21.962Z,3.30
2022-10-03T03:35:57.570Z,3.50
2022-10-03T03:38:30.231Z,3.07
2022-10-03T03:41:07.347Z,3.10
2022-10-03T03:43:44.360Z,2.87
2022-10-03T03:46:20.615Z,3.40
2022-10-03T03:49:02.111Z,2.77
2022-10-03T03:51:35.691Z,2.93
2022-10-03T03:54:28.309Z,3.03
2022-10-03T03:57:06.755Z,3.50
2022-10-03T03:59:41.727Z,3.03
2022-10-03T04:02:18.525Z,3.03
2022-10-03T04:05:02.148Z,3.10
2022-10-03T04:07:36.300Z,2.80
2022-10-03T04:10:33.743Z,3.90
2022-10-03T04:13:18.897Z,3.10
2022-10-03T04:15:56.843Z,2.90
2022-10-03T04:19:00.854Z,2.63
2022-10-03T04:21:38.860Z,3.10
2022-10-03T04:24:32.443Z,3.37
2022-10-03T04:27:09.508Z,3.47
2022-10-03T04:29:56.001Z,2.93
2022-10-03T04:32:43.104Z,2.93
2022-10-03T04:35:36.746Z,3.70
2022-10-03T04:38:12.154Z,3.50
2022-10-03T04:40:45.130Z,3.03
2022-10-03T04:43:15.176Z,3.30
2022-10-03T04:45:55.702Z,2.93
2022-10-03T04:48:29.126Z,3.50
2022-10-03T04:51:02.156Z,2.97
2022-10-03T04:53:41.120Z,3.07
2022-10-03T04:56:23.408Z,3.10
2022-10-03T04:58:55.552Z,3.60
2022-10-03T05:01:26.609Z,3.27
2022-10-03T05:04:06.051Z,3.00
2022-10-03T05:06:39.119Z,3.10
2022-10-03T05:09:18.395Z,3.30
2022-10-03T05:11:50.586Z,3.10
2022-10-03T05:14:22.468Z,3.37
2022-10-03T05:16:54.915Z,3.63
2022-10-03T05:19:45.357Z,2.87
2022-10-03T05:22:19.457Z,3.20
2022-10-03T05:24:51.251Z,3.10
2022-10-03T05:27:23.816Z,3.80
2022-10-03T05:29:56.741Z,3.13
2022-10-03T05:32:28.366Z,3.20
2022-10-03T05:35:06.530Z,3.27
2022-10-03T05:37:47.033Z,3.80
2022-10-03T05:40:17.432Z,3.30
2022-10-03T05:43:01.785Z,3.17
2022-10-03T05:45:31.896Z,3.53
2022-10-03T05:48:13.390Z,3.67
2022-10-03T05:50:57.791Z,3.43
2022-10-03T05:54:01.331Z,3.27
2022-10-03T05:56:40.993Z,3.50
2022-10-03T05:59:26.522Z,3.30
2022-10-03T06:02:13.972Z,3.53
2022-10-03T06:04:59.075Z,3.20
2022-10-03T06:07:28.166Z,3.50
2022-10-03T06:10:15.034Z,3.13
2022-10-03T06:12:45.058Z,3.50
2022-10-03T06:15:28.041Z,3.10
2022-10-03T06:18:03.995Z,3.87
2022-10-03T06:21:15.593Z,3.33
2022-10-03T06:23:59.787Z,3.07
2022-10-03T06:27:03.336Z,3.43
2022-10-03T06:29:52.133Z,3.30
2022-10-03T06:32:48.108Z,3.60
2022-10-03T06:35:55.760Z,3.20
2022-10-03T06:39:09.294Z,3.10
2022-10-03T06:42:04.226Z,3.87
2022-10-03T06:44:39.362Z,3.00
2022-10-03T06:47:37.155Z,3.10
2022-10-03T06:50:39.522Z,3.37
2022-10-03T06:53:33.986Z,3.57
2022-10-03T06:56:22.635Z,3.43
2022-10-03T07:02:36.223Z,3.70
2022-10-03T07:05:40.015Z,3.27
2022-10-03T07:11:56.561Z,3.07
2022-10-03T07:14:56.292Z,3.47
2022-10-03T07:17:41.315Z,3.93
2022-10-03T07:20:26.989Z,3.73
2022-10-03T07:23:17.993Z,3.10
2022-10-03T07:26:12.831Z,3.87
2022-10-03T07:29:09.261Z,3.33
2022-10-03T07:31:53.250Z,3.70
2022-10-03T07:34:54.194Z,3.67
2022-10-03T07:37:52.662Z,3.83
2022-10-03T07:40:31.694Z,3.57
2022-10-03T07:43:35.288Z,3.90
2022-10-03T07:46:29.229Z,3.87
2022-10-03T07:49:19.929Z,3.40
2022-10-03T07:51:55.239Z,3.53
2022-10-03T07:54:51.831Z,3.47
2022-10-03T07:57:48.297Z,3.50
2022-10-03T08:00:24.416Z,4.20
2022-10-03T08:03:42.738Z,3.73
2022-10-03T08:06:18.285Z,3.77
2022-10-03T08:08:59.239Z,4.00
2022-10-03T08:11:42.678Z,3.80
2022-10-03T08:14:18.755Z,4.00
2022-10-03T08:17:21.242Z,4.10
2022-10-03T08:20:18.606Z,3.80
2022-10-03T08:22:55.333Z,4.03
2022-10-03T08:25:29.051Z,4.33
2022-10-03T08:28:32.892Z,4.13
2022-10-03T08:31:17.704Z,3.73
2022-10-03T08:34:02.293Z,3.57
2022-10-03T08:37:15.140Z,3.77
2022-10-03T08:39:55.893Z,3.40
2022-10-03T08:42:45.746Z,4.30
2022-10-03T08:45:37.136Z,3.27
2022-10-03T08:48:28.856Z,4.10
2022-10-03T08:51:26.731Z,3.43
2022-10-03T08:54:22.329Z,3.80
2022-10-03T08:56:58.947Z,3.10
2022-10-03T08:59:58.475Z,3.23
2022-10-03T09:03:02.038Z,3.23
2022-10-03T09:05:50.622Z,3.70
2022-10-03T09:08:46.098Z,3.43
2022-10-03T09:11:41.748Z,3.50
2022-10-03T09:14:39.652Z,3.23
2022-10-03T09:17:36.375Z,3.60
2022-10-03T09:20:29.356Z,3.50
2022-10-03T09:23:35.675Z,3.37
2022-10-03T09:26:42.121Z,3.40
2022-10-03T09:29:28.956Z,4.00
2022-10-03T09:32:29.368Z,3.00
2022-10-03T09:35:38.302Z,3.60
2022-10-03T09:38:41.750Z,3.40
2022-10-03T09:41:45.702Z,3.60
2022-10-03T09:44:25.344Z,3.47
2022-10-03T09:47:28.194Z,3.33
2022-10-03T09:50:22.336Z,3.97
2022-10-03T09:53:40.999Z,3.53
2022-10-03T09:56:33.491Z,3.20
2022-10-03T09:59:15.974Z,2.80
2022-10-03T10:01:46.008Z,3.60
2022-10-03T10:04:54.413Z,3.17
2022-10-03T10:07:54.113Z,3.30
2022-10-03T10:10:50.010Z,3.07
2022-10-03T10:14:06.593Z,2.87
2022-10-03T10:16:59.020Z,3.13
2022-10-03T10:19:36.479Z,3.07
2022-10-03T10:22:49.331Z,3.40
2022-10-03T10:25:54.077Z,3.07
2022-10-03T10:28:58.090Z,3.00
2022-10-03T10:31:56.669Z,3.13
2022-10-03T10:34:54.419Z,3.40
2022-10-03T10:37:55.115Z,3.00
2022-10-03T10:40:48.050Z,3.13
2022-10-03T10:43:47.103Z,2.97
2022-10-03T10:46:48.005Z,3.13
2022-10-03T10:50:00.995Z,3.00
2022-10-03T10:53:02.609Z,2.57
2022-10-03T10:55:58.660Z,2.77
2022-10-03T10:59:00.289Z,2.90
2022-10-03T11:01:53.045Z,2.60
2022-10-03T11:04:38.735Z,2.20
2022-10-03T11:07:40.055Z,2.73
2022-10-03T11:10:31.163Z,2.70
2022-10-03T11:13:38.639Z,3.10
2022-10-03T11:16:35.359Z,2.90
2022-10-03T11:19:43.566Z,2.40
2022-10-03T11:22:58.909Z,2.70
2022-10-03T11:25:59.028Z,2.67
2022-10-03T11:29:16.040Z,2.50
2022-10-03T11:32:23.288Z,2.70
2022-10-03T11:35:18.840Z,2.47
2022-10-03T11:37:47.204Z,2.73
2022-10-03T11:40:27.116Z,2.70
2022-10-03T11:42:58.268Z,3.07
2022-10-03T11:45:28.902Z,2.70
2022-10-03T11:48:10.733Z,2.30
2022-10-03T11:50:44.879Z,2.97
2022-10-03T11:53:27.414Z,2.80
2022-10-03T11:56:02.214Z,2.50
2022-10-03T11:58:35.076Z,2.53
2022-10-03T12:01:18.915Z,3.40
2022-10-03T12:03:51.395Z,2.70
2022-10-03T12:06:46.959Z,2.43
2022-10-03T12:09:18.272Z,2.70
2022-10-03T12:11:48.293Z,2.43
2022-10-03T12:14:24.324Z,2.80
2022-10-03T12:16:58.866Z,2.07
2022-10-03T12:19:31.194Z,2.47
2022-10-03T12:22:04.344Z,2.33
2022-10-03T12:24:33.109Z,2.30
2022-10-03T12:27:05.869Z,2.60
2022-10-03T12:29:35.069Z,2.13
2022-10-03T12:32:10.819Z,2.80
2022-10-03T12:34:40.577Z,2.10
2022-10-03T12:37:41.847Z,2.27
2022-10-03T12:40:16.413Z,2.20
2022-10-03T12:42:48.642Z,1.90
2022-10-03T12:45:24.374Z,2.17
2022-10-03T12:48:01.796Z,2.60
2022-10-03T12:50:41.254Z,2.20
2022-10-03T12:53:27.568Z,2.33
2022-10-03T12:56:16.745Z,2.53
2022-10-03T12:58:52.075Z,2.23
2022-10-03T13:01:26.350Z,2.17
2022-10-03T13:03:55.115Z,1.63
2022-10-03T13:07:08.985Z,2.13
2022-10-03T13:09:51.580Z,2.10
2022-10-03T13:12:26.949Z,2.37
2022-10-03T13:15:44.428Z,2.27
2022-10-03T13:18:20.739Z,2.30
2022-10-03T13:20:52.291Z,2.10
2022-10-03T13:23:24.654Z,2.90
2022-10-03T13:25:56.392Z,2.30
2022-10-03T13:28:28.062Z,1.87
2022-10-03T13:30:57.569Z,2.60
2022-10-03T13:33:26.473Z,2.43
2022-10-03T13:36:02.495Z,2.07
2022-10-03T13:39:01.800Z,2.20
2022-10-03T13:41:34.025Z,1.93
2022-10-03T13:44:04.539Z,2.20
2022-10-03T13:46:37.434Z,2.77
2022-10-03T13:49:11.131Z,2.10
2022-10-03T13:51:44.843Z,1.93
2022-10-03T13:54:15.750Z,1.63
2022-10-03T13:56:50.676Z,2.07
2022-10-03T13:59:37.644Z,1.70
2022-10-03T14:02:15.501Z,2.30
2022-10-03T14:05:00.957Z,2.13
2022-10-03T14:07:34.230Z,1.93
2022-10-03T14:10:24.678Z,2.50
2022-10-03T14:13:10.738Z,1.77
2022-10-03T14:15:45.042Z,1.70
2022-10-03T14:18:23.225Z,1.90
2022-10-03T14:21:28.592Z,1.57
2022-10-03T14:23:59.715Z,1.90
2022-10-03T14:26:30.471Z,2.10
2022-10-03T14:29:01.948Z,1.90
2022-10-03T14:31:32.071Z,1.97
2022-10-03T14:34:02.347Z,1.73
2022-10-03T14:36:37.554Z,1.63
2022-10-03T14:39:13.554Z,1.73
2022-10-03T14:41:46.418Z,1.90
2022-10-03T14:44:18.391Z,1.80
2022-10-03T14:46:50.035Z,2.20
2022-10-03T14:49:51.036Z,1.87
2022-10-03T14:52:15.228Z,1.70
2022-10-03T14:54:43.276Z,1.70
2022-10-03T14:57:27.712Z,1.90
2022-10-03T14:59:58.368Z,1.60
2022-10-03T15:02:31.205Z,1.53
2022-10-03T15:05:03.348Z,1.80
2022-10-03T15:07:36.107Z,1.70
2022-10-03T15:10:04.898Z,1.80
2022-10-03T15:12:33.908Z,2.03
2022-10-03T15:15:04.740Z,2.03
2022-10-03T15:17:34.028Z,1.80
2022-10-03T15:20:02.479Z,1.90
2022-10-03T15:22:32.540Z,1.57
2022-10-03T15:25:05.706Z,1.47
2022-10-03T15:27:34.622Z,2.33
2022-10-03T15:30:06.302Z,1.93
2022-10-03T15:32:37.422Z,1.83
2022-10-03T15:35:06.140Z,1.70
2022-10-03T15:37:37.345Z,1.73
2022-10-03T15:40:09.556Z,2.13
2022-10-03T15:42:48.690Z,1.70
2022-10-03T15:45:22.791Z,1.70
2022-10-03T15:47:51.191Z,1.77
2022-10-03T15:50:21.944Z,1.90
2022-10-03T15:52:52.470Z,1.70
2022-10-03T15:55:22.264Z,1.67
2022-10-03T15:57:52.304Z,1.60
2022-10-03T16:00:24.689Z,1.40
2022-10-03T16:02:57.238Z,1.53
2022-10-03T16:05:25.921Z,1.90
2022-10-03T16:07:57.949Z,1.60
2022-10-03T16:10:26.872Z,1.90
2022-10-03T16:13:00.589Z,1.17
2022-10-03T16:15:36.433Z,1.70
2022-10-03T16:18:05.792Z,1.47
2022-10-03T16:20:36.578Z,1.57
2022-10-03T16:23:10.247Z,1.87
2022-10-03T16:25:41.660Z,1.50
2022-10-03T16:28:13.384Z,2.07
2022-10-03T16:30:43.935Z,1.70
2022-10-03T16:33:16.140Z,1.40
2022-10-03T16:35:45.738Z,1.57
2022-10-03T16:38:19.767Z,1.40
2022-10-03T16:40:53.596Z,1.50
2022-10-03T16:43:21.630Z,1.20
2022-10-03T16:45:51.234Z,1.73
2022-10-03T16:48:38.805Z,1.67
2022-10-03T16:51:08.226Z,1.37
2022-10-03T16:53:36.281Z,1.60
2022-10-03T16:56:06.897Z,1.90
2022-10-03T16:58:39.955Z,1.57
2022-10-03T17:04:12.332Z,1.27
2022-10-03T17:06:40.529Z,1.33
2022-10-03T17:09:15.579Z,1.60
2022-10-03T17:11:43.820Z,1.80
2022-10-03T17:14:11.902Z,1.50
2022-10-03T17:16:47.296Z,1.77
2022-10-03T17:19:20.521Z,1.80
2022-10-03T17:21:53.928Z,1.40
2022-10-03T17:24:38.616Z,1.50
2022-10-03T17:27:11.197Z,1.80
2022-10-03T17:29:42.268Z,1.60
2022-10-03T17:32:14.176Z,1.50
2022-10-03T17:34:54.173Z,1.63
2022-10-03T17:37:36.507Z,1.80
2022-10-03T17:40:11.185Z,1.47
2022-10-03T17:42:40.611Z,1.40
2022-10-03T17:45:16.809Z,1.80
2022-10-03T17:47:52.144Z,1.60
2022-10-03T17:50:26.171Z,1.70
2022-10-03T17:52:54.245Z,1.60
2022-10-03T17:55:23.696Z,1.30
2022-10-03T17:57:57.384Z,1.37
2022-10-03T18:00:26.347Z,1.30
2022-10-03T18:03:00.551Z,1.53
2022-10-03T18:05:29.573Z,1.53
2022-10-03T18:07:58.355Z,1.60
2022-10-03T18:10:29.046Z,1.70
2022-10-03T18:12:57.800Z,1.53
2022-10-03T18:15:42.507Z,1.80
2022-10-03T18:18:36.488Z,1.63
2022-10-03T18:21:05.529Z,1.80
2022-10-03T18:23:54.123Z,1.90
2022-10-03T18:26:26.871Z,1.63
2022-10-03T18:29:01.179Z,2.00
2022-10-03T18:31:31.112Z,1.87
2022-10-03T18:34:02.716Z,1.80
2022-10-03T18:36:31.977Z,1.70
2022-10-03T18:39:09.220Z,1.90
2022-10-03T18:41:37.443Z,1.87
2022-10-03T18:44:13.307Z,1.80
2022-10-03T18:46:41.411Z,1.73
2022-10-03T18:49:34.894Z,1.60
2022-10-03T18:52:11.439Z,1.67
2022-10-03T18:54:47.371Z,1.93
2022-10-03T18:57:18.448Z,1.60
2022-10-03T18:59:49.203Z,2.10
2022-10-03T19:02:20.891Z,2.40
2022-10-03T19:04:53.178Z,1.87
2022-10-03T19:07:22.860Z,1.90
2022-10-03T19:10:15.519Z,2.00
2022-10-03T19:12:44.341Z,1.93
2022-10-03T19:15:19.965Z,2.10
2022-10-03T19:17:54.394Z,1.47
2022-10-03T19:20:26.292Z,1.70
2022-10-03T19:23:01.333Z,1.67
2022-10-03T19:25:29.385Z,1.77
2022-10-03T19:27:59.542Z,1.90
2022-10-03T19:30:28.613Z,2.10
2022-10-03T19:32:59.356Z,2.37
2022-10-03T19:35:28.821Z,1.93
2022-10-03T19:37:57.461Z,1.70
2022-10-03T19:40:35.438Z,1.87
2022-10-03T19:43:20.950Z,2.10
2022-10-03T19:45:49.707Z,2.10
2022-10-03T19:48:18.518Z,2.20
2022-10-03T19:50:47.918Z,2.17
2022-10-03T19:53:17.179Z,2.20
2022-10-03T19:55:45.244Z,2.43
2022-10-03T19:58:15.663Z,2.63
2022-10-03T20:00:50.936Z,2.40
2022-10-03T20:03:23.182Z,2.57
2022-10-03T20:06:00.802Z,2.47
2022-10-03T20:08:32.513Z,2.90
2022-10-03T20:11:22.619Z,2.30
2022-10-03T20:13:51.053Z,2.20
2022-10-03T20:16:22.879Z,2.40
2022-10-03T20:18:51.670Z,2.17
2022-10-03T20:21:22.681Z,2.53
2022-10-03T20:23:50.720Z,2.23
2022-10-03T20:26:21.662Z,2.87
2022-10-03T20:29:03.745Z,2.50
2022-10-03T20:31:31.896Z,2.50
2022-10-03T20:34:22.646Z,2.53
2022-10-03T20:36:52.972Z,2.63
2022-10-03T20:39:22.352Z,2.90
2022-10-03T20:42:29.860Z,2.70
2022-10-03T20:45:00.885Z,2.90
2022-10-03T20:47:44.136Z,2.73
2022-10-03T20:50:15.305Z,2.90
2022-10-03T20:52:45.324Z,2.80
2022-10-03T20:55:27.685Z,3.20
2022-10-03T20:58:11.690Z,2.97
2022-10-03T21:00:44.088Z,2.70
2022-10-03T21:03:16.582Z,3.47
2022-10-03T21:05:47.248Z,2.97
2022-10-03T21:08:19.362Z,3.80
2022-10-03T21:10:49.539Z,2.70
2022-10-03T21:13:21.337Z,3.00
2022-10-03T21:15:51.806Z,3.00
2022-10-03T21:18:21.861Z,3.00
2022-10-03T21:20:51.483Z,2.60
2022-10-03T21:23:23.852Z,3.60
2022-10-03T21:25:52.143Z,3.27
2022-10-03T21:28:24.339Z,3.03
2022-10-03T21:31:31.075Z,2.90
2022-10-03T21:34:01.285Z,2.80
2022-10-03T21:36:35.195Z,3.17
2022-10-03T21:39:12.562Z,3.17
2022-10-03T21:41:43.919Z,2.83
2022-10-03T21:44:26.111Z,2.70
2022-10-03T21:46:57.672Z,3.20
2022-10-03T21:49:37.969Z,2.83
2022-10-03T21:52:21.217Z,3.23
2022-10-03T21:54:56.631Z,3.43
2022-10-03T21:57:27.101Z,3.20
2022-10-03T22:00:13.679Z,3.17
2022-10-03T22:03:02.193Z,3.17
2022-10-03T22:05:36.432Z,2.43
2022-10-03T22:08:14.117Z,3.87
2022-10-03T22:10:47.886Z,2.97
2022-10-03T22:13:20.478Z,3.10
2022-10-03T22:15:50.794Z,3.10
2022-10-03T22:18:21.438Z,2.97
2022-10-03T22:20:52.705Z,3.20
2022-10-03T22:23:26.073Z,3.47
2022-10-03T22:26:05.413Z,3.53
2022-10-03T22:28:42.142Z,3.40
2022-10-03T22:31:15.604Z,3.07
2022-10-03T22:33:49.821Z,2.97
2022-10-03T22:36:19.661Z,3.43
2022-10-03T22:38:47.945Z,3.50
2022-10-03T22:41:20.231Z,3.37
2022-10-03T22:43:48.404Z,3.37
2022-10-03T22:46:21.537Z,3.00
2022-10-03T22:48:51.036Z,3.40
2022-10-03T22:51:19.874Z,3.10
2022-10-03T22:53:48.944Z,3.33
2022-10-03T22:56:39.720Z,3.47
2022-10-03T22:59:09.283Z,3.70
2022-10-03T23:01:37.356Z,3.60
2022-10-03T23:04:06.362Z,3.23
2022-10-03T23:06:44.037Z,3.50
2022-10-03T23:09:15.019Z,3.20
2022-10-03T23:11:44.455Z,3.07
2022-10-03T23:14:15.592Z,3.63
2022-10-03T23:16:51.662Z,3.37
2022-10-03T23:19:41.662Z,3.30
2022-10-03T23:22:14.772Z,3.13
2022-10-03T23:24:44.595Z,3.23
2022-10-03T23:27:47.080Z,3.13
2022-10-03T23:30:52.052Z,3.37
2022-10-03T23:33:39.970Z,2.90
2022-10-03T23:36:12.596Z,4.10
2022-10-03T23:39:01.477Z,3.20
2022-10-03T23:41:58.003Z,2.80
2022-10-03T23:44:38.170Z,3.10
2022-10-03T23:47:08.539Z,3.57
2022-10-03T23:49:36.593Z,3.20
2022-10-03T23:52:05.225Z,3.00
2022-10-03T23:54:38.536Z,3.47
2022-10-03T23:57:08.241Z,3.43
2022-10-03T23:59:38.326Z,3.07
